sensor_id;sensor_type;location;lat;lon;timestamp;pressure;altitude;pressure_sealevel;temperature;humidity
78210;BME280;67485;48.816;9.930;2023-03-09T00:00:56;94517.72;;;9.80;92.50
78210;BME280;67485;48.816;9.930;2023-03-09T00:03:22;94505.19;;;9.85;91.84
78210;BME280;67485;48.816;9.930;2023-03-09T00:05:54;94491.47;;;9.81;91.59
78210;BME280;67485;48.816;9.930;2023-03-09T00:08:20;94485.59;;;9.92;91.49
78210;BME280;67485;48.816;9.930;2023-03-09T00:10:45;94481.38;;;9.89;91.11
78210;BME280;67485;48.816;9.930;2023-03-09T00:13:16;94472.03;;;10.00;90.92
78210;BME280;67485;48.816;9.930;2023-03-09T00:15:41;94466.34;;;9.93;90.77
78210;BME280;67485;48.816;9.930;2023-03-09T00:18:07;94467.19;;;9.94;90.51
78210;BME280;67485;48.816;9.930;2023-03-09T00:20:32;94456.53;;;9.97;90.12
78210;BME280;67485;48.816;9.930;2023-03-09T00:22:58;94442.31;;;10.01;90.25
78210;BME280;67485;48.816;9.930;2023-03-09T00:25:34;94440.47;;;10.03;89.47
78210;BME280;67485;48.816;9.930;2023-03-09T00:28:00;94440.25;;;10.06;88.93
78210;BME280;67485;48.816;9.930;2023-03-09T00:30:26;94446.78;;;10.13;88.71
78210;BME280;67485;48.816;9.930;2023-03-09T00:32:52;94451.38;;;10.10;88.76
78210;BME280;67485;48.816;9.930;2023-03-09T00:35:18;94441.56;;;10.13;88.59
78210;BME280;67485;48.816;9.930;2023-03-09T00:37:44;94440.91;;;10.10;89.00
78210;BME280;67485;48.816;9.930;2023-03-09T00:40:12;94433.34;;;10.05;88.91
78210;BME280;67485;48.816;9.930;2023-03-09T00:42:38;94450.72;;;10.06;88.95
78210;BME280;67485;48.816;9.930;2023-03-09T00:45:07;94464.28;;;9.98;89.56
78210;BME280;67485;48.816;9.930;2023-03-09T00:47:33;94465.88;;;10.01;89.70
78210;BME280;67485;48.816;9.930;2023-03-09T00:49:58;94437.53;;;10.07;89.13
78210;BME280;67485;48.816;9.930;2023-03-09T00:52:25;94450.94;;;9.88;88.39
78210;BME280;67485;48.816;9.930;2023-03-09T00:54:52;94478.22;;;9.55;90.72
78210;BME280;67485;48.816;9.930;2023-03-09T00:57:20;94520.25;;;9.36;94.64
78210;BME280;67485;48.816;9.930;2023-03-09T00:59:46;94524.09;;;9.45;96.14
78210;BME280;67485;48.816;9.930;2023-03-09T01:02:12;94496.13;;;9.47;96.54
78210;BME280;67485;48.816;9.930;2023-03-09T01:04:38;94499.66;;;9.46;96.66
78210;BME280;67485;48.816;9.930;2023-03-09T01:07:03;94513.28;;;9.51;96.45
78210;BME280;67485;48.816;9.930;2023-03-09T01:09:29;94510.88;;;9.63;95.68
78210;BME280;67485;48.816;9.930;2023-03-09T01:11:55;94523.38;;;9.57;95.55
78210;BME280;67485;48.816;9.930;2023-03-09T01:14:21;94526.03;;;9.72;94.17
78210;BME280;67485;48.816;9.930;2023-03-09T01:16:46;94544.06;;;9.77;93.60
78210;BME280;67485;48.816;9.930;2023-03-09T01:19:12;94557.22;;;9.75;93.29
78210;BME280;67485;48.816;9.930;2023-03-09T01:21:38;94545.47;;;9.68;93.32
78210;BME280;67485;48.816;9.930;2023-03-09T01:24:04;94533.47;;;9.64;93.06
78210;BME280;67485;48.816;9.930;2023-03-09T01:26:30;94542.09;;;9.66;92.37
78210;BME280;67485;48.816;9.930;2023-03-09T01:28:56;94545.06;;;9.60;91.75
78210;BME280;67485;48.816;9.930;2023-03-09T01:31:22;94544.31;;;9.57;91.78
78210;BME280;67485;48.816;9.930;2023-03-09T01:33:48;94558.13;;;9.60;90.53
78210;BME280;67485;48.816;9.930;2023-03-09T01:36:16;94556.44;;;9.58;89.98
78210;BME280;67485;48.816;9.930;2023-03-09T01:38:43;94556.66;;;9.55;89.98
78210;BME280;67485;48.816;9.930;2023-03-09T01:41:14;94561.69;;;9.58;90.03
78210;BME280;67485;48.816;9.930;2023-03-09T01:43:45;94568.19;;;9.51;90.04
78210;BME280;67485;48.816;9.930;2023-03-09T01:49:13;94557.53;;;9.40;90.09
78210;BME280;67485;48.816;9.930;2023-03-09T01:52:13;94573.41;;;9.37;89.54
78210;BME280;67485;48.816;9.930;2023-03-09T01:54:37;94564.97;;;9.32;89.64
78210;BME280;67485;48.816;9.930;2023-03-09T01:57:13;94563.47;;;9.28;89.44
78210;BME280;67485;48.816;9.930;2023-03-09T01:59:43;94554.88;;;9.25;89.39
78210;BME280;67485;48.816;9.930;2023-03-09T02:02:10;94569.78;;;9.23;88.79
78210;BME280;67485;48.816;9.930;2023-03-09T02:04:45;94571.59;;;9.23;89.33
78210;BME280;67485;48.816;9.930;2023-03-09T02:07:16;94563.84;;;9.21;89.12
78210;BME280;67485;48.816;9.930;2023-03-09T02:10:29;94583.97;;;9.19;88.92
78210;BME280;67485;48.816;9.930;2023-03-09T02:12:51;94576.47;;;9.13;89.06
78210;BME280;67485;48.816;9.930;2023-03-09T02:15:22;94566.19;;;9.10;88.81
78210;BME280;67485;48.816;9.930;2023-03-09T02:17:48;94588.63;;;9.14;88.27
78210;BME280;67485;48.816;9.930;2023-03-09T02:23:22;94566.38;;;9.07;88.64
78210;BME280;67485;48.816;9.930;2023-03-09T02:25:57;94590.81;;;9.06;88.57
78210;BME280;67485;48.816;9.930;2023-03-09T02:28:25;94583.06;;;9.04;88.59
78210;BME280;67485;48.816;9.930;2023-03-09T02:30:51;94595.31;;;9.04;88.42
78210;BME280;67485;48.816;9.930;2023-03-09T02:33:28;94575.81;;;8.93;88.99
78210;BME280;67485;48.816;9.930;2023-03-09T02:35:59;94570.59;;;8.93;87.99
78210;BME280;67485;48.816;9.930;2023-03-09T02:38:26;94572.47;;;8.91;88.29
78210;BME280;67485;48.816;9.930;2023-03-09T02:40:54;94596.91;;;8.90;87.95
78210;BME280;67485;48.816;9.930;2023-03-09T02:43:28;94567.25;;;8.91;87.74
78210;BME280;67485;48.816;9.930;2023-03-09T02:45:55;94564.06;;;8.86;87.70
78210;BME280;67485;48.816;9.930;2023-03-09T02:48:21;94569.28;;;8.86;87.14
78210;BME280;67485;48.816;9.930;2023-03-09T02:50:49;94569.63;;;8.80;87.29
78210;BME280;67485;48.816;9.930;2023-03-09T02:53:14;94564.22;;;8.83;86.92
78210;BME280;67485;48.816;9.930;2023-03-09T02:55:40;94563.28;;;8.84;87.25
78210;BME280;67485;48.816;9.930;2023-03-09T02:58:09;94567.75;;;8.82;86.86
78210;BME280;67485;48.816;9.930;2023-03-09T03:00:34;94561.59;;;8.83;86.90
78210;BME280;67485;48.816;9.930;2023-03-09T03:03:00;94564.41;;;8.80;87.18
78210;BME280;67485;48.816;9.930;2023-03-09T03:05:28;94563.06;;;8.73;87.03
78210;BME280;67485;48.816;9.930;2023-03-09T03:07:55;94553.63;;;8.70;86.75
78210;BME280;67485;48.816;9.930;2023-03-09T03:10:22;94560.34;;;8.74;86.30
78210;BME280;67485;48.816;9.930;2023-03-09T03:12:48;94565.47;;;8.76;86.63
78210;BME280;67485;48.816;9.930;2023-03-09T03:15:14;94581.91;;;8.78;85.15
78210;BME280;67485;48.816;9.930;2023-03-09T03:17:39;94576.19;;;8.71;85.40
78210;BME280;67485;48.816;9.930;2023-03-09T03:20:06;94577.88;;;8.72;85.41
78210;BME280;67485;48.816;9.930;2023-03-09T03:22:41;94572.72;;;8.71;85.01
78210;BME280;67485;48.816;9.930;2023-03-09T03:25:08;94580.41;;;8.74;85.16
78210;BME280;67485;48.816;9.930;2023-03-09T03:27:39;94577.94;;;8.71;85.37
78210;BME280;67485;48.816;9.930;2023-03-09T03:30:06;94573.66;;;8.70;85.49
78210;BME280;67485;48.816;9.930;2023-03-09T03:32:34;94581.00;;;8.79;85.38
78210;BME280;67485;48.816;9.930;2023-03-09T03:35:00;94575.00;;;8.77;85.76
78210;BME280;67485;48.816;9.930;2023-03-09T03:37:26;94580.47;;;8.72;86.35
78210;BME280;67485;48.816;9.930;2023-03-09T03:39:52;94587.97;;;8.79;86.67
78210;BME280;67485;48.816;9.930;2023-03-09T03:42:18;94595.75;;;8.80;86.69
78210;BME280;67485;48.816;9.930;2023-03-09T03:44:44;94592.19;;;8.81;87.32
78210;BME280;67485;48.816;9.930;2023-03-09T03:47:12;94599.34;;;8.93;87.70
78210;BME280;67485;48.816;9.930;2023-03-09T03:49:37;94612.06;;;8.84;87.48
78210;BME280;67485;48.816;9.930;2023-03-09T03:52:07;94632.78;;;8.87;87.85
78210;BME280;67485;48.816;9.930;2023-03-09T03:54:33;94646.09;;;8.82;88.45
78210;BME280;67485;48.816;9.930;2023-03-09T03:56:59;94676.75;;;8.79;88.67
78210;BME280;67485;48.816;9.930;2023-03-09T03:59:25;94681.41;;;8.89;89.08
78210;BME280;67485;48.816;9.930;2023-03-09T04:01:50;94699.06;;;8.68;89.20
78210;BME280;67485;48.816;9.930;2023-03-09T04:04:16;94726.63;;;8.74;89.90
78210;BME280;67485;48.816;9.930;2023-03-09T04:06:47;94744.13;;;8.72;90.60
78210;BME280;67485;48.816;9.930;2023-03-09T04:09:14;94760.94;;;8.66;91.40
78210;BME280;67485;48.816;9.930;2023-03-09T04:11:40;94746.97;;;8.67;91.90
78210;BME280;67485;48.816;9.930;2023-03-09T04:14:08;94748.59;;;8.70;91.89
78210;BME280;67485;48.816;9.930;2023-03-09T04:16:34;94746.63;;;8.57;91.22
78210;BME280;67485;48.816;9.930;2023-03-09T04:19:03;94752.38;;;8.64;91.11
78210;BME280;67485;48.816;9.930;2023-03-09T04:21:28;94752.91;;;8.53;90.64
78210;BME280;67485;48.816;9.930;2023-03-09T04:23:55;94766.97;;;8.51;90.94
78210;BME280;67485;48.816;9.930;2023-03-09T04:26:21;94776.66;;;8.49;91.03
78210;BME280;67485;48.816;9.930;2023-03-09T04:29:07;94790.47;;;8.51;91.26
78210;BME280;67485;48.816;9.930;2023-03-09T04:31:33;94784.09;;;8.39;91.40
78210;BME280;67485;48.816;9.930;2023-03-09T04:34:00;94790.84;;;8.43;91.82
78210;BME280;67485;48.816;9.930;2023-03-09T04:36:26;94807.50;;;8.40;91.86
78210;BME280;67485;48.816;9.930;2023-03-09T04:38:53;94812.72;;;8.40;92.10
78210;BME280;67485;48.816;9.930;2023-03-09T04:41:20;94815.72;;;8.33;92.44
78210;BME280;67485;48.816;9.930;2023-03-09T04:43:52;94826.16;;;8.33;92.25
78210;BME280;67485;48.816;9.930;2023-03-09T04:46:18;94840.13;;;8.32;92.90
78210;BME280;67485;48.816;9.930;2023-03-09T04:48:44;94841.13;;;8.29;92.65
78210;BME280;67485;48.816;9.930;2023-03-09T04:51:10;94842.09;;;8.26;92.44
78210;BME280;67485;48.816;9.930;2023-03-09T04:53:36;94856.69;;;8.31;92.27
78210;BME280;67485;48.816;9.930;2023-03-09T04:56:01;94855.16;;;8.26;92.12
78210;BME280;67485;48.816;9.930;2023-03-09T04:58:30;94864.81;;;8.24;92.13
78210;BME280;67485;48.816;9.930;2023-03-09T05:00:56;94862.97;;;8.26;92.31
78210;BME280;67485;48.816;9.930;2023-03-09T05:03:22;94866.63;;;8.22;92.05
78210;BME280;67485;48.816;9.930;2023-03-09T05:05:52;94866.81;;;8.19;92.10
78210;BME280;67485;48.816;9.930;2023-03-09T05:08:21;94863.41;;;8.17;92.00
78210;BME280;67485;48.816;9.930;2023-03-09T05:10:47;94884.16;;;8.20;91.29
78210;BME280;67485;48.816;9.930;2023-03-09T05:13:15;94894.59;;;8.20;91.45
78210;BME280;67485;48.816;9.930;2023-03-09T05:15:41;94874.84;;;8.15;91.41
78210;BME280;67485;48.816;9.930;2023-03-09T05:18:08;94886.75;;;8.20;91.14
78210;BME280;67485;48.816;9.930;2023-03-09T05:20:36;94890.59;;;8.31;90.75
78210;BME280;67485;48.816;9.930;2023-03-09T05:23:04;94899.06;;;8.36;90.36
78210;BME280;67485;48.816;9.930;2023-03-09T05:25:30;94908.66;;;8.35;89.98
78210;BME280;67485;48.816;9.930;2023-03-09T05:27:57;94918.31;;;8.33;89.92
78210;BME280;67485;48.816;9.930;2023-03-09T05:30:25;94926.56;;;8.43;90.07
78210;BME280;67485;48.816;9.930;2023-03-09T05:32:50;94937.41;;;8.34;89.44
78210;BME280;67485;48.816;9.930;2023-03-09T05:35:19;94943.59;;;8.33;88.94
78210;BME280;67485;48.816;9.930;2023-03-09T05:37:46;94949.84;;;8.28;88.91
78210;BME280;67485;48.816;9.930;2023-03-09T05:40:16;94954.22;;;8.47;87.85
78210;BME280;67485;48.816;9.930;2023-03-09T05:42:46;94962.66;;;8.52;86.52
78210;BME280;67485;48.816;9.930;2023-03-09T05:45:11;94956.25;;;8.59;86.27
78210;BME280;67485;48.816;9.930;2023-03-09T05:47:37;94969.03;;;8.47;85.58
78210;BME280;67485;48.816;9.930;2023-03-09T05:50:06;94964.72;;;8.46;85.82
78210;BME280;67485;48.816;9.930;2023-03-09T05:52:32;94971.06;;;8.40;85.66
78210;BME280;67485;48.816;9.930;2023-03-09T05:54:57;94982.16;;;8.45;85.39
78210;BME280;67485;48.816;9.930;2023-03-09T05:57:23;94988.06;;;8.30;84.96
78210;BME280;67485;48.816;9.930;2023-03-09T05:59:51;94993.00;;;8.36;84.97
78210;BME280;67485;48.816;9.930;2023-03-09T06:02:18;95003.03;;;8.45;84.70
78210;BME280;67485;48.816;9.930;2023-03-09T06:04:49;95019.09;;;8.36;84.73
78210;BME280;67485;48.816;9.930;2023-03-09T06:07:15;95024.03;;;8.42;84.61
78210;BME280;67485;48.816;9.930;2023-03-09T06:09:44;95033.94;;;8.35;84.32
78210;BME280;67485;48.816;9.930;2023-03-09T06:12:16;95046.06;;;8.36;85.05
78210;BME280;67485;48.816;9.930;2023-03-09T06:14:45;95044.78;;;8.45;84.31
78210;BME280;67485;48.816;9.930;2023-03-09T06:17:12;95059.44;;;8.28;84.66
78210;BME280;67485;48.816;9.930;2023-03-09T06:19:38;95061.13;;;8.30;84.32
78210;BME280;67485;48.816;9.930;2023-03-09T06:22:04;95059.94;;;8.37;84.07
78210;BME280;67485;48.816;9.930;2023-03-09T06:24:31;95076.09;;;8.26;83.98
78210;BME280;67485;48.816;9.930;2023-03-09T06:26:58;95080.75;;;8.19;83.64
78210;BME280;67485;48.816;9.930;2023-03-09T06:29:33;95092.25;;;8.34;83.42
78210;BME280;67485;48.816;9.930;2023-03-09T06:32:00;95097.28;;;8.39;83.09
78210;BME280;67485;48.816;9.930;2023-03-09T06:34:29;95086.69;;;8.42;82.97
78210;BME280;67485;48.816;9.930;2023-03-09T06:36:55;95098.81;;;8.43;83.18
78210;BME280;67485;48.816;9.930;2023-03-09T06:39:21;95086.16;;;8.54;83.04
78210;BME280;67485;48.816;9.930;2023-03-09T06:41:46;95086.66;;;8.63;82.62
78210;BME280;67485;48.816;9.930;2023-03-09T06:44:26;95090.97;;;8.81;81.98
78210;BME280;67485;48.816;9.930;2023-03-09T06:46:53;95090.28;;;8.97;82.18
78210;BME280;67485;48.816;9.930;2023-03-09T06:49:21;95099.84;;;9.15;81.43
78210;BME280;67485;48.816;9.930;2023-03-09T06:51:47;95100.47;;;9.20;81.12
78210;BME280;67485;48.816;9.930;2023-03-09T06:54:14;95093.78;;;9.32;80.87
78210;BME280;67485;48.816;9.930;2023-03-09T06:56:44;95103.41;;;9.32;80.61
78210;BME280;67485;48.816;9.930;2023-03-09T06:59:10;95109.00;;;9.24;80.62
78210;BME280;67485;48.816;9.930;2023-03-09T07:01:36;95097.88;;;9.38;80.28
78210;BME280;67485;48.816;9.930;2023-03-09T07:04:02;95095.31;;;9.36;80.24
78210;BME280;67485;48.816;9.930;2023-03-09T07:06:29;95101.50;;;9.53;79.28
78210;BME280;67485;48.816;9.930;2023-03-09T07:08:54;95096.63;;;9.63;78.92
78210;BME280;67485;48.816;9.930;2023-03-09T07:11:20;95111.09;;;9.70;78.49
78210;BME280;67485;48.816;9.930;2023-03-09T07:13:46;95103.41;;;9.67;79.23
78210;BME280;67485;48.816;9.930;2023-03-09T07:16:11;95110.34;;;9.68;79.39
78210;BME280;67485;48.816;9.930;2023-03-09T07:18:37;95120.22;;;9.61;79.22
78210;BME280;67485;48.816;9.930;2023-03-09T07:21:03;95118.22;;;9.66;79.66
78210;BME280;67485;48.816;9.930;2023-03-09T07:23:29;95133.09;;;9.66;79.28
78210;BME280;67485;48.816;9.930;2023-03-09T07:26:01;95120.63;;;9.88;78.71
78210;BME280;67485;48.816;9.930;2023-03-09T07:28:28;95120.75;;;10.03;78.82
78210;BME280;67485;48.816;9.930;2023-03-09T07:30:55;95125.88;;;10.22;77.28
78210;BME280;67485;48.816;9.930;2023-03-09T07:33:20;95123.69;;;10.30;76.27
78210;BME280;67485;48.816;9.930;2023-03-09T07:35:46;95128.00;;;10.31;75.81
78210;BME280;67485;48.816;9.930;2023-03-09T07:38:12;95136.09;;;10.44;76.23
78210;BME280;67485;48.816;9.930;2023-03-09T07:40:38;95131.81;;;10.26;76.20
78210;BME280;67485;48.816;9.930;2023-03-09T07:43:04;95142.00;;;9.97;76.44
78210;BME280;67485;48.816;9.930;2023-03-09T07:45:53;95142.47;;;9.87;77.22
78210;BME280;67485;48.816;9.930;2023-03-09T07:48:19;95142.63;;;10.02;76.48
78210;BME280;67485;48.816;9.930;2023-03-09T07:50:45;95141.03;;;10.33;76.09
78210;BME280;67485;48.816;9.930;2023-03-09T07:53:11;95149.94;;;10.46;75.21
78210;BME280;67485;48.816;9.930;2023-03-09T07:55:37;95149.47;;;10.56;75.34
78210;BME280;67485;48.816;9.930;2023-03-09T07:58:04;95149.13;;;10.46;75.16
78210;BME280;67485;48.816;9.930;2023-03-09T08:00:30;95159.28;;;10.34;74.80
78210;BME280;67485;48.816;9.930;2023-03-09T08:02:57;95140.59;;;10.25;74.83
78210;BME280;67485;48.816;9.930;2023-03-09T08:05:23;95151.31;;;10.53;74.29
78210;BME280;67485;48.816;9.930;2023-03-09T08:07:49;95164.44;;;10.69;73.03
78210;BME280;67485;48.816;9.930;2023-03-09T08:10:19;95160.56;;;10.61;73.12
78210;BME280;67485;48.816;9.930;2023-03-09T08:12:49;95167.75;;;10.73;72.76
78210;BME280;67485;48.816;9.930;2023-03-09T08:15:14;95179.56;;;10.80;72.70
78210;BME280;67485;48.816;9.930;2023-03-09T08:17:40;95177.41;;;11.05;71.52
78210;BME280;67485;48.816;9.930;2023-03-09T08:20:06;95185.25;;;11.52;69.34
78210;BME280;67485;48.816;9.930;2023-03-09T08:22:35;95182.69;;;11.67;68.20
78210;BME280;67485;48.816;9.930;2023-03-09T08:25:02;95183.78;;;11.63;68.20
78210;BME280;67485;48.816;9.930;2023-03-09T08:27:29;95194.56;;;11.42;68.16
78210;BME280;67485;48.816;9.930;2023-03-09T08:29:55;95211.25;;;11.88;67.97
78210;BME280;67485;48.816;9.930;2023-03-09T08:32:21;95215.00;;;11.83;67.21
78210;BME280;67485;48.816;9.930;2023-03-09T08:34:54;95210.38;;;11.57;67.45
78210;BME280;67485;48.816;9.930;2023-03-09T08:37:20;95201.41;;;11.61;67.92
78210;BME280;67485;48.816;9.930;2023-03-09T08:39:46;95220.72;;;11.60;68.30
78210;BME280;67485;48.816;9.930;2023-03-09T08:42:11;95222.94;;;11.35;68.61
78210;BME280;67485;48.816;9.930;2023-03-09T08:44:37;95227.16;;;11.22;69.20
78210;BME280;67485;48.816;9.930;2023-03-09T08:47:03;95235.59;;;11.11;69.08
78210;BME280;67485;48.816;9.930;2023-03-09T08:49:28;95230.34;;;11.11;69.38
78210;BME280;67485;48.816;9.930;2023-03-09T08:51:54;95238.97;;;11.13;68.64
78210;BME280;67485;48.816;9.930;2023-03-09T08:54:20;95250.03;;;11.82;66.78
78210;BME280;67485;48.816;9.930;2023-03-09T08:56:46;95249.06;;;12.15;64.81
78210;BME280;67485;48.816;9.930;2023-03-09T08:59:12;95248.66;;;12.38;65.07
78210;BME280;67485;48.816;9.930;2023-03-09T09:01:37;95257.91;;;11.82;65.72
78210;BME280;67485;48.816;9.930;2023-03-09T09:04:04;95256.75;;;11.56;67.46
78210;BME280;67485;48.816;9.930;2023-03-09T09:06:29;95258.03;;;11.49;67.77
78210;BME280;67485;48.816;9.930;2023-03-09T09:08:55;95259.81;;;11.48;67.07
78210;BME280;67485;48.816;9.930;2023-03-09T09:11:21;95253.53;;;11.67;67.48
78210;BME280;67485;48.816;9.930;2023-03-09T09:13:46;95259.97;;;11.45;66.77
78210;BME280;67485;48.816;9.930;2023-03-09T09:16:14;95283.75;;;11.42;67.75
78210;BME280;67485;48.816;9.930;2023-03-09T09:18:41;95272.31;;;11.27;68.43
78210;BME280;67485;48.816;9.930;2023-03-09T09:21:09;95275.16;;;11.23;68.22
78210;BME280;67485;48.816;9.930;2023-03-09T09:23:35;95277.66;;;11.26;68.82
78210;BME280;67485;48.816;9.930;2023-03-09T09:26:02;95271.19;;;11.15;69.05
78210;BME280;67485;48.816;9.930;2023-03-09T09:28:28;95289.22;;;11.22;69.01
78210;BME280;67485;48.816;9.930;2023-03-09T09:30:58;95293.28;;;11.27;68.33
78210;BME280;67485;48.816;9.930;2023-03-09T09:33:26;95293.78;;;11.18;69.25
78210;BME280;67485;48.816;9.930;2023-03-09T09:36:11;95313.75;;;11.21;69.15
78210;BME280;67485;48.816;9.930;2023-03-09T09:38:37;95313.03;;;11.34;68.82
78210;BME280;67485;48.816;9.930;2023-03-09T09:41:24;95315.69;;;11.33;69.09
78210;BME280;67485;48.816;9.930;2023-03-09T09:43:54;95306.84;;;11.51;69.07
78210;BME280;67485;48.816;9.930;2023-03-09T09:46:22;95316.41;;;11.52;68.31
78210;BME280;67485;48.816;9.930;2023-03-09T09:48:49;95305.34;;;11.63;68.24
78210;BME280;67485;48.816;9.930;2023-03-09T09:54:23;95320.53;;;11.57;69.29
78210;BME280;67485;48.816;9.930;2023-03-09T09:56:56;95319.69;;;11.40;70.25
78210;BME280;67485;48.816;9.930;2023-03-09T09:59:29;95351.69;;;11.63;70.94
78210;BME280;67485;48.816;9.930;2023-03-09T10:07:13;95342.75;;;11.67;72.32
78210;BME280;67485;48.816;9.930;2023-03-09T10:09:41;95342.91;;;11.64;72.00
78210;BME280;67485;48.816;9.930;2023-03-09T10:12:12;95341.66;;;11.71;71.20
78210;BME280;67485;48.816;9.930;2023-03-09T10:14:43;95335.66;;;12.17;70.15
78210;BME280;67485;48.816;9.930;2023-03-09T10:17:14;95345.13;;;12.20;69.86
78210;BME280;67485;48.816;9.930;2023-03-09T10:19:42;95343.00;;;12.10;69.75
78210;BME280;67485;48.816;9.930;2023-03-09T10:22:15;95348.34;;;12.25;70.40
78210;BME280;67485;48.816;9.930;2023-03-09T10:24:48;95345.19;;;12.18;69.48
78210;BME280;67485;48.816;9.930;2023-03-09T10:32:53;95357.25;;;12.22;68.25
78210;BME280;67485;48.816;9.930;2023-03-09T10:35:34;95348.00;;;12.31;68.06
78210;BME280;67485;48.816;9.930;2023-03-09T10:38:01;95343.66;;;12.30;66.86
78210;BME280;67485;48.816;9.930;2023-03-09T10:40:41;95362.06;;;12.30;66.64
78210;BME280;67485;48.816;9.930;2023-03-09T10:43:14;95370.16;;;12.41;67.13
78210;BME280;67485;48.816;9.930;2023-03-09T10:45:43;95367.66;;;12.24;67.08
78210;BME280;67485;48.816;9.930;2023-03-09T10:48:25;95377.66;;;12.17;67.08
78210;BME280;67485;48.816;9.930;2023-03-09T10:51:02;95369.50;;;12.22;67.06
78210;BME280;67485;48.816;9.930;2023-03-09T10:53:40;95376.22;;;12.11;67.57
78210;BME280;67485;48.816;9.930;2023-03-09T10:56:26;95388.16;;;12.01;67.55
78210;BME280;67485;48.816;9.930;2023-03-09T11:01:47;95370.84;;;12.29;65.51
78210;BME280;67485;48.816;9.930;2023-03-09T11:06:59;95377.91;;;12.59;64.77
78210;BME280;67485;48.816;9.930;2023-03-09T11:09:29;95373.00;;;12.69;64.06
78210;BME280;67485;48.816;9.930;2023-03-09T11:12:21;95382.38;;;12.42;64.42
78210;BME280;67485;48.816;9.930;2023-03-09T11:14:51;95382.34;;;12.58;63.89
78210;BME280;67485;48.816;9.930;2023-03-09T11:17:37;95380.84;;;12.85;63.60
78210;BME280;67485;48.816;9.930;2023-03-09T11:22:45;95380.88;;;16.24;53.06
78210;BME280;67485;48.816;9.930;2023-03-09T11:25:13;95370.84;;;16.89;50.40
78210;BME280;67485;48.816;9.930;2023-03-09T11:27:49;95366.78;;;15.99;51.47
78210;BME280;67485;48.816;9.930;2023-03-09T11:30:18;95369.09;;;16.28;51.75
78210;BME280;67485;48.816;9.930;2023-03-09T11:32:47;95375.53;;;17.44;49.34
78210;BME280;67485;48.816;9.930;2023-03-09T11:35:14;95352.22;;;18.06;46.30
78210;BME280;67485;48.816;9.930;2023-03-09T11:38:10;95351.50;;;18.04;45.32
78210;BME280;67485;48.816;9.930;2023-03-09T11:40:38;95363.81;;;17.12;47.50
78210;BME280;67485;48.816;9.930;2023-03-09T11:43:21;95374.78;;;16.11;50.98
78210;BME280;67485;48.816;9.930;2023-03-09T11:45:50;95379.47;;;15.94;52.44
78210;BME280;67485;48.816;9.930;2023-03-09T11:48:31;95375.00;;;16.08;51.36
78210;BME280;67485;48.816;9.930;2023-03-09T11:51:23;95374.28;;;15.80;51.00
78210;BME280;67485;48.816;9.930;2023-03-09T11:56:48;95369.78;;;15.82;49.78
78210;BME280;67485;48.816;9.930;2023-03-09T12:04:38;95370.16;;;14.72;51.90
78210;BME280;67485;48.816;9.930;2023-03-09T12:07:22;95383.00;;;14.50;53.14
78210;BME280;67485;48.816;9.930;2023-03-09T12:10:02;95391.06;;;14.61;53.55
78210;BME280;67485;48.816;9.930;2023-03-09T12:12:49;95388.94;;;14.11;53.73
78210;BME280;67485;48.816;9.930;2023-03-09T12:17:57;95383.44;;;14.29;54.33
78210;BME280;67485;48.816;9.930;2023-03-09T12:20:34;95372.16;;;14.00;53.67
78210;BME280;67485;48.816;9.930;2023-03-09T12:23:01;95383.72;;;13.68;54.56
78210;BME280;67485;48.816;9.930;2023-03-09T12:25:28;95399.16;;;13.74;54.67
78210;BME280;67485;48.816;9.930;2023-03-09T12:27:57;95385.22;;;14.01;53.91
78210;BME280;67485;48.816;9.930;2023-03-09T12:30:33;95391.41;;;14.00;53.84
78210;BME280;67485;48.816;9.930;2023-03-09T12:33:01;95380.00;;;13.72;54.49
78210;BME280;67485;48.816;9.930;2023-03-09T12:40:35;95385.91;;;13.61;54.87
78210;BME280;67485;48.816;9.930;2023-03-09T12:45:40;95385.91;;;13.61;54.37
78210;BME280;67485;48.816;9.930;2023-03-09T12:51:00;95388.44;;;13.77;54.49
78210;BME280;67485;48.816;9.930;2023-03-09T12:53:29;95389.38;;;13.62;53.84
78210;BME280;67485;48.816;9.930;2023-03-09T12:56:02;95385.00;;;14.04;53.24
78210;BME280;67485;48.816;9.930;2023-03-09T12:58:34;95386.94;;;13.44;54.58
78210;BME280;67485;48.816;9.930;2023-03-09T13:03:53;95382.59;;;13.29;55.95
78210;BME280;67485;48.816;9.930;2023-03-09T13:06:36;95371.28;;;13.12;55.54
78210;BME280;67485;48.816;9.930;2023-03-09T13:11:45;95371.16;;;13.73;54.18
78210;BME280;67485;48.816;9.930;2023-03-09T13:17:02;95388.88;;;12.81;56.64
78210;BME280;67485;48.816;9.930;2023-03-09T13:19:38;95380.53;;;12.89;56.91
78210;BME280;67485;48.816;9.930;2023-03-09T13:27:11;95383.19;;;12.59;57.58
78210;BME280;67485;48.816;9.930;2023-03-09T13:29:54;95399.47;;;13.10;56.09
78210;BME280;67485;48.816;9.930;2023-03-09T13:32:29;95394.50;;;13.20;55.70
78210;BME280;67485;48.816;9.930;2023-03-09T13:34:57;95396.16;;;13.37;56.06
78210;BME280;67485;48.816;9.930;2023-03-09T13:37:27;95391.25;;;13.31;55.91
78210;BME280;67485;48.816;9.930;2023-03-09T13:40:00;95394.66;;;13.48;55.12
78210;BME280;67485;48.816;9.930;2023-03-09T13:42:29;95396.16;;;13.52;55.13
78210;BME280;67485;48.816;9.930;2023-03-09T13:44:55;95405.16;;;13.62;55.20
78210;BME280;67485;48.816;9.930;2023-03-09T13:47:27;95403.28;;;12.60;57.84
78210;BME280;67485;48.816;9.930;2023-03-09T13:49:54;95391.16;;;12.57;57.29
78210;BME280;67485;48.816;9.930;2023-03-09T13:52:21;95401.91;;;12.69;57.23
78210;BME280;67485;48.816;9.930;2023-03-09T13:54:52;95405.88;;;12.76;57.29
78210;BME280;67485;48.816;9.930;2023-03-09T13:57:23;95400.63;;;12.76;57.75
78210;BME280;67485;48.816;9.930;2023-03-09T14:02:36;95403.03;;;12.48;58.24
78210;BME280;67485;48.816;9.930;2023-03-09T14:10:24;95407.28;;;12.19;58.02
78210;BME280;67485;48.816;9.930;2023-03-09T14:13:02;95398.00;;;12.13;59.16
78210;BME280;67485;48.816;9.930;2023-03-09T14:15:29;95394.09;;;12.21;58.98
78210;BME280;67485;48.816;9.930;2023-03-09T14:17:55;95399.16;;;12.24;58.76
78210;BME280;67485;48.816;9.930;2023-03-09T14:20:25;95393.91;;;12.24;58.74
78210;BME280;67485;48.816;9.930;2023-03-09T14:22:51;95379.50;;;12.31;58.31
78210;BME280;67485;48.816;9.930;2023-03-09T14:27:50;95376.66;;;12.80;57.60